createdAt,value
2023-03-29T00:00:14.476Z,101026.84
2023-03-29T00:10:16.632Z,101024.09
2023-03-29T00:20:18.913Z,101019.88
2023-03-29T00:30:21.108Z,101021.91
2023-03-29T00:40:23.129Z,101023.91
2023-03-29T00:51:01.835Z,101018.78
2023-03-29T01:01:20.778Z,101005.75
2023-03-29T01:11:31.227Z,101015.88
2023-03-29T01:21:44.809Z,101012.91
2023-03-29T01:31:57.829Z,101015.44
2023-03-29T01:42:29.300Z,101020.63
2023-03-29T01:52:45.801Z,101021.44
2023-03-29T02:02:49.447Z,101004.91
2023-03-29T02:12:51.569Z,101005.66
2023-03-29T02:23:15.834Z,101039.91
2023-03-29T02:33:22.349Z,101033.56
2023-03-29T02:43:26.390Z,101035.16
2023-03-29T02:53:33.987Z,101048.47
2023-03-29T03:03:36.120Z,101043.03
2023-03-29T03:13:38.224Z,101039.16
2023-03-29T03:23:40.641Z,101050.06
2023-03-29T03:33:49.211Z,101066.00
2023-03-29T03:43:58.613Z,101060.16
2023-03-29T03:54:00.590Z,101073.09
2023-03-29T04:04:06.511Z,101067.19
2023-03-29T04:14:08.673Z,101070.31
2023-03-29T04:24:10.701Z,101085.38
2023-03-29T04:34:14.751Z,101090.72
2023-03-29T04:44:35.435Z,101087.66
2023-03-29T04:54:37.751Z,101085.19
2023-03-29T05:04:39.773Z,101087.69
2023-03-29T05:14:41.873Z,101088.28
2023-03-29T05:24:44.236Z,101083.34
2023-03-29T05:34:48.307Z,101090.84
2023-03-29T05:44:54.034Z,101083.84
2023-03-29T05:54:57.073Z,101088.09
2023-03-29T06:04:59.211Z,101084.31
2023-03-29T06:15:05.439Z,101088.22
2023-03-29T06:25:11.299Z,101088.81
2023-03-29T06:35:15.620Z,101085.94
2023-03-29T06:45:31.610Z,101098.00
2023-03-29T06:55:43.636Z,101099.88
2023-03-29T07:05:53.248Z,101109.84
2023-03-29T07:16:13.217Z,101108.47
2023-03-29T07:26:29.021Z,101101.91
2023-03-29T07:36:34.617Z,101108.94
2023-03-29T07:46:37.068Z,101105.06
2023-03-29T07:56:39.136Z,101092.78
2023-03-29T08:06:42.118Z,101088.09
2023-03-29T08:16:44.378Z,101075.22
2023-03-29T08:26:46.441Z,101064.06
2023-03-29T08:36:48.480Z,101058.97
2023-03-29T08:47:43.110Z,101059.81
2023-03-29T08:57:52.123Z,101050.03
2023-03-29T09:07:54.615Z,101056.03
2023-03-29T09:18:23.433Z,101045.56
2023-03-29T09:29:16.838Z,101049.25
2023-03-29T09:39:28.813Z,101028.53
2023-03-29T09:49:48.162Z,101028.13
2023-03-29T09:59:59.231Z,101016.09
2023-03-29T10:10:02.449Z,101013.44
2023-03-29T10:20:16.273Z,101018.59
2023-03-29T10:30:28.412Z,101010.06
2023-03-29T10:40:53.476Z,100998.69
2023-03-29T10:51:08.263Z,101006.47
2023-03-29T11:01:43.025Z,100994.66
2023-03-29T11:12:01.276Z,100976.72
2023-03-29T11:22:25.624Z,100969.00
2023-03-29T11:33:06.254Z,100950.19
2023-03-29T11:43:35.322Z,100944.09
2023-03-29T11:53:57.435Z,100938.97
2023-03-29T12:04:07.041Z,100927.88
2023-03-29T12:14:28.189Z,100912.34
2023-03-29T12:24:32.985Z,100903.88
2023-03-29T12:34:56.875Z,100899.53
2023-03-29T12:45:01.135Z,100884.91
2023-03-29T12:55:25.422Z,100873.88
2023-03-29T13:05:34.384Z,100871.28
2023-03-29T13:15:44.584Z,100874.50
2023-03-29T13:26:12.650Z,100860.03
2023-03-29T13:36:20.666Z,100847.16
2023-03-29T13:46:37.603Z,100842.75
2023-03-29T13:56:58.444Z,100819.72
2023-03-29T14:07:05.883Z,100815.41
2023-03-29T14:17:08.098Z,100815.38
2023-03-29T14:27:12.997Z,100810.94
2023-03-29T14:37:31.399Z,100792.78
2023-03-29T14:47:35.321Z,100796.44
2023-03-29T14:57:38.565Z,100795.41
2023-03-29T15:07:43.784Z,100787.75
2023-03-29T15:17:54.427Z,100776.56
2023-03-29T15:28:00.213Z,100764.44
2023-03-29T15:38:04.969Z,100758.22
2023-03-29T15:48:28.198Z,100762.47
2023-03-29T15:58:42.641Z,100761.16
2023-03-29T16:08:51.448Z,100750.06
2023-03-29T16:19:03.486Z,100733.78
2023-03-29T16:29:05.998Z,100733.16
2023-03-29T16:39:14.649Z,100727.28
2023-03-29T16:49:39.236Z,100718.00
2023-03-29T16:59:47.972Z,100722.44
2023-03-29T17:09:59.500Z,100724.22
2023-03-29T17:20:22.053Z,100717.41
2023-03-29T17:30:25.243Z,100731.13
2023-03-29T17:40:27.480Z,100718.31
2023-03-29T17:50:29.896Z,100732.84
2023-03-29T18:00:43.927Z,100738.88
2023-03-29T18:10:46.920Z,100738.00
2023-03-29T18:20:49.483Z,100732.03
2023-03-29T18:30:55.311Z,100728.59
2023-03-29T18:40:58.554Z,100726.88
2023-03-29T18:51:05.572Z,100739.69
2023-03-29T19:01:10.499Z,100731.13
2023-03-29T19:11:18.589Z,100725.97
2023-03-29T19:21:25.774Z,100740.53
2023-03-29T19:31:30.700Z,100732.84
2023-03-29T19:41:36.889Z,100724.31
2023-03-29T19:51:43.192Z,100713.19
2023-03-29T20:01:51.627Z,100696.97
2023-03-29T20:11:55.439Z,100690.13
2023-03-29T20:21:58.995Z,100678.13
2023-03-29T20:32:12.572Z,100662.69
2023-03-29T20:42:27.104Z,100661.00
2023-03-29T20:52:31.905Z,100657.34
2023-03-29T21:02:40.757Z,100658.09
2023-03-29T21:12:43.384Z,100638.34
2023-03-29T21:22:51.269Z,100639.25
2023-03-29T21:32:55.073Z,100629.81
2023-03-29T21:43:07.135Z,100639.16
2023-03-29T21:53:09.574Z,100617.88
2023-03-29T22:03:15.252Z,100622.13
2023-03-29T22:13:17.443Z,100601.75
2023-03-29T22:23:20.476Z,100590.81
2023-03-29T22:33:24.549Z,100587.44
2023-03-29T22:43:27.577Z,100584.97
2023-03-29T22:53:29.802Z,100560.22
2023-03-29T23:03:37.727Z,100575.56
2023-03-29T23:13:39.807Z,100558.53
2023-03-29T23:23:41.817Z,100551.72
2023-03-29T23:33:59.294Z,100548.31
2023-03-29T23:44:01.285Z,100532.09
2023-03-29T23:54:03.472Z,100529.50
